createdAt,value
2018-12-18T00:01:55.011Z,5.20
2018-12-18T00:04:22.613Z,5.30
2018-12-18T00:06:53.555Z,5.30
2018-12-18T00:09:22.168Z,5.30
2018-12-18T00:11:49.751Z,5.30
2018-12-18T00:14:17.199Z,5.40
2018-12-18T00:16:47.738Z,5.40
2018-12-18T00:19:15.202Z,5.40
2018-12-18T00:21:42.629Z,5.40
2018-12-18T00:24:10.086Z,5.40
2018-12-18T00:26:40.742Z,5.30
2018-12-18T00:29:08.200Z,5.40
2018-12-18T00:31:35.664Z,5.40
2018-12-18T00:34:03.139Z,5.40
2018-12-18T00:36:33.596Z,5.40
2018-12-18T00:39:01.105Z,5.40
2018-12-18T00:41:28.577Z,5.30
2018-12-18T00:43:56.071Z,5.30
2018-12-18T00:46:26.594Z,5.20
2018-12-18T00:48:54.045Z,5.20
2018-12-18T00:51:21.475Z,5.30
2018-12-18T00:53:48.918Z,5.30
2018-12-18T00:56:19.954Z,5.30
2018-12-18T00:58:47.383Z,5.40
2018-12-18T01:01:14.850Z,5.50
2018-12-18T01:03:42.300Z,5.40
2018-12-18T01:06:15.442Z,5.40
2018-12-18T01:08:42.882Z,5.40
2018-12-18T01:11:10.302Z,5.40
2018-12-18T01:13:37.759Z,5.40
2018-12-18T01:16:08.635Z,5.40
2018-12-18T01:18:36.071Z,5.40
2018-12-18T01:21:03.555Z,5.30
2018-12-18T01:23:31.070Z,5.20
2018-12-18T01:26:01.735Z,5.20
2018-12-18T01:28:29.174Z,5.30
2018-12-18T01:30:56.617Z,5.40
2018-12-18T01:33:24.060Z,5.30
2018-12-18T01:35:54.415Z,5.40
2018-12-18T01:38:21.860Z,5.30
2018-12-18T01:40:49.298Z,5.30
2018-12-18T01:43:16.786Z,5.30
2018-12-18T01:45:47.335Z,5.20
2018-12-18T01:48:14.793Z,5.20
2018-12-18T01:50:42.267Z,5.20
2018-12-18T01:53:09.695Z,5.10
2018-12-18T01:55:40.123Z,5.10
2018-12-18T01:58:07.562Z,5.10
2018-12-18T02:00:35.000Z,5.20
2018-12-18T02:03:02.428Z,5.20
2018-12-18T02:05:33.291Z,5.30
2018-12-18T02:08:00.721Z,5.30
2018-12-18T02:10:28.158Z,5.20
2018-12-18T02:12:55.624Z,5.20
2018-12-18T02:15:26.334Z,5.20
2018-12-18T02:17:53.763Z,5.20
2018-12-18T02:20:21.268Z,5.10
2018-12-18T02:22:48.848Z,5.10
2018-12-18T02:25:16.305Z,5.10
2018-12-18T02:27:43.734Z,5.10
2018-12-18T02:30:11.185Z,5.10
2018-12-18T02:32:38.655Z,5.10
2018-12-18T02:35:06.112Z,5.10
2018-12-18T02:37:37.068Z,5.10
2018-12-18T02:40:05.983Z,5.10
2018-12-18T02:42:33.489Z,5.10
2018-12-18T02:45:00.968Z,5.10
2018-12-18T02:47:32.237Z,5.10
2018-12-18T02:49:59.766Z,5.10
2018-12-18T02:52:27.235Z,5.20
2018-12-18T02:54:54.983Z,5.10
2018-12-18T02:57:26.019Z,5.10
2018-12-18T02:59:53.469Z,5.10
2018-12-18T03:02:20.918Z,5.00
2018-12-18T03:04:48.371Z,5.00
2018-12-18T03:07:19.033Z,4.90
2018-12-18T03:09:46.488Z,4.70
2018-12-18T03:12:19.735Z,4.60
2018-12-18T03:14:53.204Z,4.70
2018-12-18T03:17:24.071Z,4.80
2018-12-18T03:19:54.621Z,4.90
2018-12-18T03:22:28.189Z,4.90
2018-12-18T03:25:01.922Z,5.00
2018-12-18T03:27:32.686Z,5.00
2018-12-18T03:30:06.293Z,5.00
2018-12-18T03:32:35.794Z,4.90
2018-12-18T03:35:03.638Z,4.70
2018-12-18T03:37:34.383Z,4.40
2018-12-18T03:40:06.203Z,4.40
2018-12-18T03:42:39.745Z,4.40
2018-12-18T03:45:11.417Z,4.30
2018-12-18T03:47:38.877Z,4.20
2018-12-18T03:50:10.088Z,4.10
2018-12-18T03:52:43.330Z,4.10
2018-12-18T03:55:17.133Z,4.00
2018-12-18T03:57:50.570Z,4.00
2018-12-18T04:00:21.624Z,3.90
2018-12-18T04:02:49.067Z,3.90
2018-12-18T04:05:16.560Z,3.90
2018-12-18T04:07:49.677Z,3.90
2018-12-18T04:10:20.446Z,3.90
2018-12-18T04:12:53.919Z,3.90
2018-12-18T04:15:24.680Z,4.00
2018-12-18T04:17:58.399Z,4.00
2018-12-18T04:20:25.848Z,4.00
2018-12-18T04:22:56.733Z,4.00
2018-12-18T04:25:27.467Z,4.00
2018-12-18T04:28:01.028Z,4.00
2018-12-18T04:30:34.568Z,4.00
2018-12-18T04:33:02.021Z,3.90
2018-12-18T04:35:32.818Z,3.70
2018-12-18T04:38:00.241Z,3.70
2018-12-18T04:40:27.679Z,3.70
2018-12-18T04:42:55.112Z,3.80
2018-12-18T04:45:26.009Z,3.80
2018-12-18T04:47:54.843Z,3.90
2018-12-18T04:50:28.427Z,3.80
2018-12-18T04:52:59.377Z,3.80
2018-12-18T04:55:30.750Z,3.70
2018-12-18T04:58:04.346Z,3.70
2018-12-18T05:00:37.768Z,3.70
2018-12-18T05:03:11.378Z,3.60
2018-12-18T05:05:45.043Z,3.60
2018-12-18T05:08:18.850Z,3.50
2018-12-18T05:10:53.455Z,3.40
2018-12-18T05:13:27.208Z,3.40
2018-12-18T05:15:56.174Z,3.30
2018-12-18T05:18:29.796Z,3.10
2018-12-18T05:20:57.226Z,2.70
2018-12-18T05:23:24.664Z,2.50
2018-12-18T05:25:55.730Z,2.50
2018-12-18T05:28:23.176Z,2.50
2018-12-18T05:30:50.636Z,2.30
2018-12-18T05:33:18.170Z,2.30
2018-12-18T05:35:48.739Z,2.40
2018-12-18T05:38:16.184Z,2.60
2018-12-18T05:40:43.642Z,2.50
2018-12-18T05:43:11.088Z,2.60
2018-12-18T05:45:41.452Z,2.50
2018-12-18T05:48:08.899Z,2.50
2018-12-18T05:50:36.338Z,2.20
2018-12-18T05:53:03.787Z,2.30
2018-12-18T05:55:37.229Z,2.30
2018-12-18T05:58:04.665Z,2.30
2018-12-18T06:00:32.096Z,2.20
2018-12-18T06:02:59.533Z,2.30
2018-12-18T06:05:30.413Z,2.40
2018-12-18T06:08:03.834Z,2.50
2018-12-18T06:10:34.556Z,2.50
2018-12-18T06:13:01.985Z,2.40
2018-12-18T06:15:32.648Z,2.30
2018-12-18T06:18:00.080Z,2.20
2018-12-18T06:20:27.535Z,2.10
2018-12-18T06:22:54.967Z,2.10
2018-12-18T06:25:26.041Z,2.00
2018-12-18T06:27:59.345Z,2.00
2018-12-18T06:30:26.800Z,2.00
2018-12-18T06:32:54.248Z,1.80
2018-12-18T06:35:24.920Z,1.80
2018-12-18T06:37:55.666Z,1.90
2018-12-18T06:40:26.464Z,1.90
2018-12-18T06:43:00.011Z,2.10
2018-12-18T06:45:30.758Z,2.20
2018-12-18T06:47:58.200Z,2.10
2018-12-18T06:50:25.655Z,2.20
2018-12-18T06:52:53.083Z,2.30
2018-12-18T06:55:20.531Z,2.30
2018-12-18T06:57:53.908Z,2.40
2018-12-18T07:00:24.855Z,2.50
2018-12-18T07:02:58.374Z,2.70
2018-12-18T07:05:29.124Z,3.60
2018-12-18T07:07:57.562Z,5.00
2018-12-18T07:10:25.286Z,6.10
2018-12-18T07:12:52.777Z,4.30
2018-12-18T07:15:25.988Z,3.60
2018-12-18T07:17:53.432Z,3.20
2018-12-18T07:20:20.885Z,3.10
2018-12-18T07:22:48.316Z,3.20
2018-12-18T07:25:15.805Z,3.20
2018-12-18T07:27:43.247Z,3.20
2018-12-18T07:30:10.751Z,3.10
2018-12-18T07:32:38.188Z,3.00
2018-12-18T07:35:05.648Z,3.00
2018-12-18T07:37:36.751Z,3.10
2018-12-18T07:40:05.277Z,3.00
2018-12-18T07:42:32.707Z,3.10
2018-12-18T07:45:00.172Z,3.10
2018-12-18T07:47:30.663Z,3.20
2018-12-18T07:49:58.119Z,3.20
2018-12-18T07:52:25.540Z,3.20
2018-12-18T07:54:52.983Z,3.30
2018-12-18T07:57:23.820Z,3.40
2018-12-18T07:59:51.294Z,3.40
2018-12-18T08:02:18.731Z,3.40
2018-12-18T08:04:46.207Z,3.50
2018-12-18T08:07:19.864Z,3.70
2018-12-18T08:09:50.819Z,3.90
2018-12-18T08:12:20.243Z,4.00
2018-12-18T08:14:54.066Z,4.10
2018-12-18T08:17:24.732Z,4.30
2018-12-18T08:19:52.181Z,4.60
2018-12-18T08:22:19.614Z,4.80
2018-12-18T08:24:47.049Z,4.80
2018-12-18T08:27:17.972Z,4.80
2018-12-18T08:29:45.450Z,5.00
2018-12-18T08:32:12.912Z,5.00
2018-12-18T08:34:40.359Z,5.00
2018-12-18T08:37:10.815Z,5.00
2018-12-18T08:39:41.612Z,5.20
2018-12-18T08:42:14.823Z,5.40
2018-12-18T08:44:45.766Z,5.60
2018-12-18T08:47:16.619Z,5.60
2018-12-18T08:49:44.091Z,5.80
2018-12-18T08:52:11.577Z,6.40
2018-12-18T08:54:39.118Z,6.50
2018-12-18T08:57:10.423Z,6.40
2018-12-18T08:59:37.861Z,6.10
2018-12-18T09:02:08.891Z,5.90
2018-12-18T09:04:42.100Z,5.70
2018-12-18T09:07:15.788Z,5.80
2018-12-18T09:09:49.363Z,6.00
2018-12-18T09:12:20.259Z,6.10
2018-12-18T09:14:56.496Z,6.50
2018-12-18T09:17:46.374Z,6.70
2018-12-18T09:20:13.971Z,6.70
2018-12-18T09:22:41.396Z,6.80
2018-12-18T09:25:08.891Z,6.50
2018-12-18T09:27:39.789Z,6.50
2018-12-18T09:30:08.696Z,6.60
2018-12-18T09:32:36.179Z,6.50
2018-12-18T09:35:04.098Z,6.50
2018-12-18T09:37:34.518Z,6.40
2018-12-18T09:40:01.957Z,6.40
2018-12-18T09:42:35.112Z,6.40
2018-12-18T09:45:02.640Z,6.50
2018-12-18T09:47:33.208Z,6.60
2018-12-18T09:50:06.464Z,6.70
2018-12-18T09:52:39.876Z,6.70
2018-12-18T09:55:08.130Z,6.70
2018-12-18T09:57:47.811Z,6.70
2018-12-18T10:00:21.076Z,6.80
2018-12-18T10:02:48.550Z,6.70
2018-12-18T10:05:15.994Z,6.80
2018-12-18T10:07:43.476Z,7.10
2018-12-18T10:10:10.908Z,7.00
2018-12-18T10:12:42.986Z,7.40
2018-12-18T10:15:10.425Z,7.20
2018-12-18T10:17:37.889Z,7.50
2018-12-18T10:20:06.484Z,8.30
2018-12-18T10:22:39.645Z,8.00
2018-12-18T10:25:07.164Z,7.80
2018-12-18T10:27:40.821Z,8.00
2018-12-18T10:30:11.847Z,7.70
2018-12-18T10:32:45.379Z,7.80
2018-12-18T10:35:16.433Z,7.80
2018-12-18T10:37:47.327Z,7.90
2018-12-18T10:40:18.051Z,8.00
2018-12-18T10:42:51.357Z,8.50
2018-12-18T10:45:18.838Z,8.20
2018-12-18T10:47:46.316Z,8.40
2018-12-18T10:50:13.828Z,9.00
2018-12-18T10:52:44.496Z,9.40
2018-12-18T10:55:18.067Z,8.50
2018-12-18T10:57:52.181Z,8.50
2018-12-18T11:00:31.442Z,8.50
2018-12-18T11:03:05.293Z,8.90
2018-12-18T11:05:36.406Z,8.40
2018-12-18T11:08:07.007Z,9.10
2018-12-18T11:10:37.641Z,9.10
2018-12-18T11:13:17.181Z,8.50
2018-12-18T11:15:50.992Z,8.70
2018-12-18T11:18:18.464Z,8.60
2018-12-18T11:20:45.929Z,8.60
2018-12-18T11:23:13.372Z,8.70
2018-12-18T11:25:43.970Z,8.50
2018-12-18T11:28:17.756Z,8.60
2018-12-18T11:30:45.163Z,8.40
2018-12-18T11:33:12.621Z,8.40
2018-12-18T11:35:43.135Z,8.10
2018-12-18T11:38:10.562Z,8.40
2018-12-18T11:40:38.087Z,8.30
2018-12-18T11:43:14.387Z,8.30
2018-12-18T11:45:45.423Z,8.40
2018-12-18T11:48:12.936Z,8.20
2018-12-18T11:50:46.405Z,8.00
2018-12-18T11:53:17.189Z,8.10
2018-12-18T11:55:47.747Z,8.20
2018-12-18T11:58:21.165Z,8.20
2018-12-18T12:00:51.938Z,7.90
2018-12-18T12:03:25.638Z,8.20
2018-12-18T12:05:59.347Z,8.40
2018-12-18T12:08:27.487Z,8.10
2018-12-18T12:10:54.953Z,8.00
2018-12-18T12:13:29.640Z,7.80
2018-12-18T12:16:03.828Z,7.90
2018-12-18T12:18:31.252Z,7.90
2018-12-18T12:20:58.683Z,8.00
2018-12-18T12:23:28.940Z,8.00
2018-12-18T12:26:03.105Z,8.00
2018-12-18T12:28:36.243Z,8.00
2018-12-18T12:31:12.548Z,7.90
2018-12-18T12:33:49.833Z,8.00
2018-12-18T12:36:29.444Z,8.00
2018-12-18T12:38:56.496Z,8.10
2018-12-18T12:41:23.955Z,8.40
2018-12-18T12:43:55.378Z,8.50
2018-12-18T12:46:31.099Z,8.40
2018-12-18T12:49:03.992Z,8.10
2018-12-18T12:51:37.711Z,8.50
2018-12-18T12:54:05.145Z,8.70
2018-12-18T12:56:35.773Z,8.50
2018-12-18T12:59:03.271Z,8.80
2018-12-18T13:01:30.758Z,8.90
2018-12-18T13:03:58.184Z,8.90
2018-12-18T13:06:29.148Z,8.60
2018-12-18T13:09:05.824Z,8.50
2018-12-18T13:11:33.324Z,8.80
2018-12-18T13:14:00.742Z,8.60
2018-12-18T13:16:31.683Z,8.40
2018-12-18T13:19:02.327Z,8.70
2018-12-18T13:21:35.889Z,8.60
2018-12-18T13:24:06.912Z,8.60
2018-12-18T13:26:38.302Z,8.60
2018-12-18T13:29:11.664Z,8.50
2018-12-18T13:31:45.336Z,8.50
2018-12-18T13:34:12.800Z,8.70
2018-12-18T13:36:43.429Z,8.50
2018-12-18T13:39:10.856Z,8.70
2018-12-18T13:41:38.363Z,8.60
2018-12-18T13:44:11.776Z,8.30
2018-12-18T13:46:42.880Z,8.30
2018-12-18T13:49:10.305Z,8.30
2018-12-18T13:51:37.768Z,8.60
2018-12-18T13:54:05.234Z,8.50
2018-12-18T13:56:35.739Z,8.30
2018-12-18T13:59:04.421Z,8.20
2018-12-18T14:01:35.228Z,8.10
2018-12-18T14:04:02.685Z,8.40
2018-12-18T14:06:33.428Z,8.00
2018-12-18T14:09:06.552Z,8.30
2018-12-18T14:11:39.836Z,8.30
2018-12-18T14:14:13.644Z,8.00
2018-12-18T14:16:44.665Z,7.90
2018-12-18T14:19:12.113Z,8.20
2018-12-18T14:21:42.654Z,8.20
2018-12-18T14:24:16.282Z,8.20
2018-12-18T14:26:49.934Z,8.00
2018-12-18T14:29:17.384Z,7.50
2018-12-18T14:31:44.835Z,7.60
2018-12-18T14:34:12.260Z,7.30
2018-12-18T14:36:43.196Z,7.30
2018-12-18T14:39:10.622Z,7.30
2018-12-18T14:41:38.103Z,7.30
2018-12-18T14:44:05.536Z,7.30
2018-12-18T14:46:36.379Z,7.20
2018-12-18T14:49:03.860Z,7.10
2018-12-18T14:51:31.324Z,6.90
2018-12-18T14:53:58.752Z,6.60
2018-12-18T14:56:29.411Z,6.70
2018-12-18T14:59:02.660Z,6.50
2018-12-18T15:01:30.148Z,6.20
2018-12-18T15:03:57.568Z,6.20
2018-12-18T15:06:28.456Z,6.10
2018-12-18T15:08:59.131Z,6.00
2018-12-18T15:11:26.602Z,5.80
2018-12-18T15:13:59.932Z,5.70
2018-12-18T15:16:30.723Z,5.50
2018-12-18T15:18:58.193Z,5.40
2018-12-18T15:21:25.696Z,5.20
2018-12-18T15:23:53.144Z,5.00
2018-12-18T15:26:26.719Z,5.00
2018-12-18T15:28:54.173Z,4.90
2018-12-18T15:31:21.640Z,4.80
2018-12-18T15:33:49.112Z,4.70
2018-12-18T15:36:19.810Z,4.60
2018-12-18T15:38:47.339Z,4.50
2018-12-18T15:41:14.779Z,4.40
2018-12-18T15:43:42.248Z,4.30
2018-12-18T15:46:12.980Z,4.30
2018-12-18T15:48:40.399Z,4.20
2018-12-18T15:51:07.951Z,4.20
2018-12-18T15:53:35.366Z,4.20
2018-12-18T15:56:05.937Z,4.10
2018-12-18T15:58:33.437Z,4.10
2018-12-18T16:01:00.910Z,4.10
2018-12-18T16:03:28.333Z,4.10
2018-12-18T16:05:59.211Z,4.10
2018-12-18T16:08:26.648Z,4.00
2018-12-18T16:10:54.067Z,4.00
2018-12-18T16:13:21.517Z,4.10
2018-12-18T16:15:52.157Z,4.00
2018-12-18T16:18:19.611Z,4.00
2018-12-18T16:20:47.039Z,3.90
2018-12-18T16:23:14.515Z,3.90
2018-12-18T16:25:45.572Z,3.80
2018-12-18T16:28:13.023Z,3.80
2018-12-18T16:30:40.484Z,3.80
2018-12-18T16:33:07.978Z,3.70
2018-12-18T16:35:46.185Z,3.60
2018-12-18T16:38:10.953Z,3.70
2018-12-18T16:40:38.441Z,3.70
2018-12-18T16:43:05.991Z,3.80
2018-12-18T16:45:37.607Z,3.90
2018-12-18T16:48:05.497Z,3.90
2018-12-18T16:50:32.963Z,3.60
2018-12-18T16:53:00.444Z,3.60
2018-12-18T16:55:31.784Z,3.70
2018-12-18T16:57:59.239Z,3.80
2018-12-18T17:00:27.927Z,3.50
2018-12-18T17:02:55.387Z,3.10
2018-12-18T17:05:25.860Z,2.80
2018-12-18T17:07:53.328Z,2.80
2018-12-18T17:10:20.839Z,2.90
2018-12-18T17:12:55.888Z,2.90
2018-12-18T17:15:29.367Z,2.90
2018-12-18T17:17:56.916Z,2.90
2018-12-18T17:20:24.349Z,2.90
2018-12-18T17:22:51.862Z,2.90
2018-12-18T17:25:19.280Z,2.80
2018-12-18T17:27:46.729Z,2.90
2018-12-18T17:30:14.168Z,2.90
2018-12-18T17:32:41.616Z,2.80
2018-12-18T17:35:09.040Z,2.70
2018-12-18T17:37:39.515Z,2.60
2018-12-18T17:40:08.035Z,2.40
2018-12-18T17:42:35.497Z,2.50
2018-12-18T17:45:03.121Z,2.40
2018-12-18T17:47:34.309Z,2.30
2018-12-18T17:50:07.796Z,2.20
2018-12-18T17:52:35.291Z,2.10
2018-12-18T17:55:02.761Z,2.00
2018-12-18T17:57:33.141Z,2.00
2018-12-18T18:00:00.618Z,2.00
2018-12-18T18:02:28.084Z,2.20
2018-12-18T18:04:55.511Z,2.40
2018-12-18T18:07:26.379Z,2.60
2018-12-18T18:09:53.812Z,2.30
2018-12-18T18:12:21.294Z,2.10
2018-12-18T18:14:49.352Z,1.80
2018-12-18T18:17:20.322Z,1.90
2018-12-18T18:19:47.820Z,2.00
2018-12-18T18:22:15.247Z,2.00
2018-12-18T18:24:42.694Z,2.00
2018-12-18T18:27:13.994Z,2.10
2018-12-18T18:29:41.449Z,2.10
2018-12-18T18:32:08.891Z,2.00
2018-12-18T18:34:36.342Z,1.90
2018-12-18T18:37:07.081Z,2.00
2018-12-18T18:39:34.548Z,2.00
2018-12-18T18:42:01.976Z,2.00
2018-12-18T18:44:29.437Z,2.00
2018-12-18T18:47:00.359Z,2.00
2018-12-18T18:49:31.741Z,2.00
2018-12-18T18:51:59.189Z,2.10
2018-12-18T18:54:26.665Z,2.10
2018-12-18T18:57:00.108Z,2.10
2018-12-18T18:59:35.511Z,2.10
2018-12-18T19:02:09.271Z,2.10
2018-12-18T19:04:36.745Z,2.10
2018-12-18T19:07:05.220Z,2.10
2018-12-18T19:09:35.986Z,2.10
2018-12-18T19:12:06.829Z,2.20
2018-12-18T19:14:40.724Z,2.20
2018-12-18T19:17:13.349Z,2.20
2018-12-18T19:19:41.842Z,2.10
2018-12-18T19:22:11.438Z,2.10
2018-12-18T19:24:38.934Z,2.10
2018-12-18T19:27:12.661Z,2.10
2018-12-18T19:29:51.346Z,2.20
2018-12-18T19:32:25.083Z,2.20
2018-12-18T19:34:52.548Z,2.20
2018-12-18T19:37:21.444Z,2.10
2018-12-18T19:39:49.065Z,2.00
2018-12-18T19:42:29.255Z,2.00
2018-12-18T19:45:07.235Z,1.90
2018-12-18T19:47:37.661Z,1.90
2018-12-18T19:50:05.168Z,2.00
2018-12-18T19:52:33.732Z,2.10
2018-12-18T19:55:03.757Z,2.10
2018-12-18T19:57:37.969Z,2.20
2018-12-18T20:00:12.799Z,2.30
2018-12-18T20:02:45.375Z,2.50
2018-12-18T20:05:18.020Z,2.60
2018-12-18T20:07:53.851Z,2.40
2018-12-18T20:10:25.926Z,2.40
2018-12-18T20:13:01.101Z,2.30
2018-12-18T20:15:36.118Z,2.30
2018-12-18T20:18:09.680Z,2.30
2018-12-18T20:20:46.588Z,2.30
2018-12-18T20:23:14.010Z,2.30
2018-12-18T20:25:45.073Z,2.30
2018-12-18T20:28:13.522Z,2.30
2018-12-18T20:30:41.753Z,2.30
2018-12-18T20:33:19.755Z,2.30
2018-12-18T20:35:48.717Z,2.30
2018-12-18T20:38:22.326Z,2.30
2018-12-18T20:40:49.911Z,2.30
2018-12-18T20:43:17.368Z,2.30
2018-12-18T20:45:57.439Z,2.30
2018-12-18T20:48:26.495Z,2.30
2018-12-18T20:50:59.889Z,2.30
2018-12-18T20:53:27.367Z,2.30
2018-12-18T20:55:58.243Z,2.30
2018-12-18T20:58:28.062Z,2.30
2018-12-18T21:00:57.646Z,2.30
2018-12-18T21:03:25.089Z,2.20
2018-12-18T21:05:58.730Z,2.20
2018-12-18T21:08:28.049Z,2.10
2018-12-18T21:10:55.488Z,2.10
2018-12-18T21:13:29.048Z,2.20
2018-12-18T21:18:37.590Z,2.10
2018-12-18T21:21:05.224Z,2.10
2018-12-18T21:23:32.668Z,2.10
2018-12-18T21:26:06.553Z,2.10
2018-12-18T21:28:40.523Z,2.10
2018-12-18T21:31:16.866Z,2.10
2018-12-18T21:33:50.619Z,2.10
2018-12-18T21:36:24.299Z,2.10
2018-12-18T21:38:58.744Z,2.10
2018-12-18T21:41:38.702Z,2.10
2018-12-18T21:44:06.191Z,2.20
2018-12-18T21:46:39.563Z,2.20
2018-12-18T21:49:07.001Z,2.30
2018-12-18T21:51:34.443Z,2.20
2018-12-18T21:54:01.900Z,2.30
2018-12-18T21:56:32.584Z,2.20
2018-12-18T21:59:00.100Z,2.30
2018-12-18T22:01:27.552Z,2.20
2018-12-18T22:03:54.994Z,2.30
2018-12-18T22:06:25.448Z,2.30
2018-12-18T22:08:52.891Z,2.30
2018-12-18T22:11:20.411Z,2.20
2018-12-18T22:13:47.912Z,2.30
2018-12-18T22:16:18.506Z,2.20
2018-12-18T22:18:45.930Z,2.40
2018-12-18T22:21:13.406Z,2.10
2018-12-18T22:23:40.832Z,2.20
2018-12-18T22:26:11.827Z,2.00
2018-12-18T22:28:39.267Z,2.00
2018-12-18T22:31:06.708Z,2.00
2018-12-18T22:33:35.007Z,1.90
2018-12-18T22:36:05.589Z,1.90
2018-12-18T22:38:33.092Z,1.90
2018-12-18T22:41:00.626Z,1.80
2018-12-18T22:43:28.051Z,1.70
2018-12-18T22:45:58.670Z,1.70
2018-12-18T22:48:26.112Z,1.80
2018-12-18T22:50:59.719Z,1.90
2018-12-18T22:53:30.408Z,2.00
2018-12-18T22:56:00.802Z,2.00
2018-12-18T22:58:28.260Z,2.10
2018-12-18T23:01:01.901Z,2.20
2018-12-18T23:03:29.367Z,2.20
2018-12-18T23:06:00.159Z,2.30
2018-12-18T23:08:27.825Z,2.40
2018-12-18T23:10:55.639Z,2.40
2018-12-18T23:13:23.477Z,2.40
2018-12-18T23:15:54.272Z,2.50
2018-12-18T23:18:21.712Z,2.60
2018-12-18T23:20:49.161Z,2.50
2018-12-18T23:23:16.631Z,2.50
2018-12-18T23:25:48.091Z,2.50
2018-12-18T23:28:15.536Z,2.50
2018-12-18T23:30:43.062Z,2.60
2018-12-18T23:33:10.579Z,2.50
2018-12-18T23:35:41.768Z,2.50
2018-12-18T23:38:09.236Z,2.50
2018-12-18T23:40:36.671Z,2.40
2018-12-18T23:43:04.146Z,2.40
2018-12-18T23:45:38.503Z,2.40
2018-12-18T23:48:05.955Z,2.40
2018-12-18T23:50:33.408Z,2.40
2018-12-18T23:53:00.833Z,2.30
2018-12-18T23:55:31.904Z,2.30
2018-12-18T23:57:59.323Z,2.40
